Augusta/Daniel Field, Georgia
Current Conditions -  °F | °C
As of 8:53 PM on Friday 21 Nov 2014 (Local Time) from KDNL Reporting Station
Clear Clear  
Wind Chill: 53°   Ceiling: Unl
Heat Index: 53°   Visibility: 10mi
Dew Point: 28°   Wind: 7mph
Humidity: 38%   Direction: 70°ENE
Pressure: 30.43"   Gusts: NA
Location:  33.47°N, 82.03°W
Report Text: KDNL 220153Z AUTO 07006KT 10SM CLR 12/M02 A3043 RMK AO2 SLP302 T01171022
Loading
Personal Weather Stations






























Interactive Weather Map New forecast layout! Learn more

10-Day Weather Forecast

Advertisements
Track Severe Weather on mobile